RJTT/HND METAR and TAF weather

Enter ICAO airport designator
Station Type Date Time Source
RJTT METAR 2020/07/12 03:00 UTC NOAA

RJTT 120300Z 16011KT 130V210 9999 FEW020 BKN/// 29/25 Q1001 NOSIG


Station Type Date Time Source
RJTT Decoded METAR 2020/07/12 03:00 UTC NOAA

Tokyo International Airport, Japan (RJTT) 35-33N 139-47E 8M
Jul 11, 2020 - 11:00 PM EDT / 2020.07.12 0300 UTC
Wind: from the SSE (160 degrees) at 13 MPH (11 KT) (direction variable):0
Visibility: greater than 7 mile(s):0
Sky conditions: mostly cloudy
Temperature: 84 F (29 C)
Dew Point: 77 F (25 C)
Relative Humidity: 79%
Pressure (altimeter): 29.56 in. Hg (1001 hPa)
ob: RJTT 120300Z 16011KT 130V210 9999 FEW020 BKN/// 29/25 Q1001 NOSIG
cycle: 3

Station Type Date Time Source
RJTT TAF 2020/07/11 18:30 UTC NOAA

TAF RJTT 111705Z 1118/1300 20012KT 9999 FEW020
TEMPO 1118/1121 20022G32KT
BECMG 1209/1212 02012KT
BECMG 1218/1221 08010KT

Example: see airport list